createdAt,value
2018-12-26T00:02:39.793Z,182.80
2018-12-26T00:05:20.159Z,172.57
2018-12-26T00:08:00.287Z,178.40
2018-12-26T00:10:41.756Z,168.53
2018-12-26T00:13:21.801Z,167.47
2018-12-26T00:16:01.893Z,173.73
2018-12-26T00:18:44.358Z,164.87
2018-12-26T00:21:25.467Z,165.20
2018-12-26T00:24:06.627Z,165.33
2018-12-26T00:26:46.969Z,157.07
2018-12-26T00:29:27.421Z,163.30
2018-12-26T00:32:07.735Z,158.63
2018-12-26T00:34:47.772Z,161.90
2018-12-26T00:37:28.104Z,173.03
2018-12-26T00:40:08.657Z,160.20
2018-12-26T00:42:49.057Z,171.87
2018-12-26T00:45:36.947Z,166.77
2018-12-26T00:48:17.267Z,168.10
2018-12-26T00:50:57.593Z,157.27
2018-12-26T00:53:37.881Z,165.57
2018-12-26T00:56:18.189Z,162.07
2018-12-26T00:58:58.751Z,164.27
2018-12-26T01:01:39.112Z,157.03
2018-12-26T01:04:19.524Z,156.77
2018-12-26T01:06:59.625Z,160.67
2018-12-26T01:09:40.179Z,169.40
2018-12-26T01:12:20.402Z,165.00
2018-12-26T01:15:00.723Z,171.20
2018-12-26T01:17:29.679Z,176.60
2018-12-26T01:20:10.263Z,155.10
2018-12-26T01:22:37.702Z,168.43
2018-12-26T01:25:17.994Z,156.77
2018-12-26T01:27:58.289Z,166.40
2018-12-26T01:30:38.780Z,165.43
2018-12-26T01:33:19.188Z,165.67
2018-12-26T01:35:59.502Z,157.03
2018-12-26T01:38:39.801Z,161.43
2018-12-26T01:41:19.971Z,161.07
2018-12-26T01:44:00.340Z,161.23
2018-12-26T01:46:41.083Z,151.70
2018-12-26T01:49:21.856Z,169.97
2018-12-26T01:52:01.906Z,149.37
2018-12-26T01:54:42.279Z,148.13
2018-12-26T01:57:29.613Z,184.93
2018-12-26T02:00:09.706Z,155.80
2018-12-26T02:02:50.264Z,167.90
2018-12-26T02:05:30.270Z,168.70
2018-12-26T02:08:10.502Z,168.00
2018-12-26T02:10:50.622Z,153.97
2018-12-26T02:13:30.735Z,158.93
2018-12-26T02:16:11.123Z,160.63
2018-12-26T02:18:51.808Z,152.63
2018-12-26T02:21:32.064Z,153.50
2018-12-26T02:24:12.317Z,151.17
2018-12-26T02:26:52.310Z,160.60
2018-12-26T02:29:39.348Z,157.30
2018-12-26T02:32:19.771Z,168.97
2018-12-26T02:35:00.651Z,158.13
2018-12-26T02:37:41.105Z,163.53
2018-12-26T02:40:21.202Z,159.87
2018-12-26T02:43:01.552Z,166.17
2018-12-26T02:45:41.638Z,158.03
2018-12-26T02:48:22.046Z,158.07
2018-12-26T02:51:02.331Z,153.50
2018-12-26T02:53:42.453Z,148.30
2018-12-26T02:56:22.463Z,162.33
2018-12-26T02:59:02.962Z,153.47
2018-12-26T03:01:50.157Z,149.40
2018-12-26T03:04:30.860Z,159.43
2018-12-26T03:07:11.026Z,154.63
2018-12-26T03:09:51.238Z,156.97
2018-12-26T03:12:31.539Z,163.47
2018-12-26T03:15:11.592Z,158.83
2018-12-26T03:17:52.395Z,171.77
2018-12-26T03:20:33.398Z,151.63
2018-12-26T03:23:13.608Z,157.93
2018-12-26T03:25:54.850Z,164.27
2018-12-26T03:28:35.340Z,161.43
2018-12-26T03:31:03.005Z,155.53
2018-12-26T03:33:43.886Z,159.43
2018-12-26T03:36:30.990Z,154.63
2018-12-26T03:39:11.423Z,154.07
2018-12-26T03:41:51.475Z,155.03
2018-12-26T03:44:31.723Z,164.77
2018-12-26T03:47:12.234Z,163.27
2018-12-26T03:49:52.350Z,155.07
2018-12-26T03:52:32.663Z,162.47
2018-12-26T03:55:13.074Z,150.30
2018-12-26T03:57:53.114Z,162.90
2018-12-26T04:00:33.644Z,151.07
2018-12-26T04:03:13.773Z,161.63
2018-12-26T04:05:54.045Z,155.63
2018-12-26T04:08:34.559Z,157.20
2018-12-26T04:11:14.841Z,152.20
2018-12-26T04:13:55.066Z,150.37
2018-12-26T04:16:35.083Z,159.30
2018-12-26T04:19:15.607Z,152.03
2018-12-26T04:21:55.495Z,150.07
2018-12-26T04:24:35.704Z,168.73
2018-12-26T04:27:15.955Z,159.50
2018-12-26T04:29:56.119Z,146.27
2018-12-26T04:32:36.512Z,163.57
2018-12-26T04:35:16.620Z,155.87
2018-12-26T04:38:03.828Z,164.70
2018-12-26T04:40:44.537Z,148.17
2018-12-26T04:43:24.624Z,148.23
2018-12-26T04:46:04.948Z,146.90
2018-12-26T04:48:44.947Z,157.17
2018-12-26T04:51:25.406Z,150.07
2018-12-26T04:54:05.905Z,154.30
2018-12-26T04:56:46.377Z,151.07
2018-12-26T04:59:26.732Z,154.33
2018-12-26T05:02:07.393Z,150.03
2018-12-26T05:04:47.350Z,150.00
2018-12-26T05:07:29.096Z,165.90
2018-12-26T05:09:56.587Z,145.20
2018-12-26T05:12:37.365Z,159.23
2018-12-26T05:15:17.550Z,151.57
2018-12-26T05:17:57.904Z,153.90
2018-12-26T05:20:38.026Z,147.80
2018-12-26T05:23:18.703Z,147.07
2018-12-26T05:25:59.027Z,151.93
2018-12-26T05:28:39.269Z,152.47
2018-12-26T05:31:19.489Z,144.23
2018-12-26T05:33:59.842Z,152.40
2018-12-26T05:36:27.288Z,148.10
2018-12-26T05:39:07.132Z,150.20
2018-12-26T05:41:34.750Z,155.50
2018-12-26T05:44:15.061Z,143.53
2018-12-26T05:47:02.120Z,144.67
2018-12-26T05:49:42.494Z,146.33
2018-12-26T05:52:22.708Z,155.50
2018-12-26T05:55:03.373Z,151.37
2018-12-26T05:57:43.304Z,159.00
2018-12-26T06:00:23.486Z,147.47
2018-12-26T06:03:03.988Z,159.33
2018-12-26T06:05:43.973Z,148.93
2018-12-26T06:08:24.207Z,153.53
2018-12-26T06:11:04.710Z,148.27
2018-12-26T06:13:44.669Z,146.03
2018-12-26T06:16:25.001Z,148.53
2018-12-26T06:18:52.580Z,141.57
2018-12-26T06:21:32.734Z,148.90
2018-12-26T06:24:19.816Z,143.70
2018-12-26T06:27:00.219Z,150.03
2018-12-26T06:29:40.427Z,146.90
2018-12-26T06:32:20.605Z,165.83
2018-12-26T06:35:02.122Z,151.57
2018-12-26T06:37:42.387Z,150.53
2018-12-26T06:40:22.720Z,154.70
2018-12-26T06:43:03.125Z,161.07
2018-12-26T06:45:43.305Z,150.27
2018-12-26T06:48:10.874Z,148.10
2018-12-26T06:50:57.848Z,145.53
2018-12-26T06:53:38.007Z,144.43
2018-12-26T06:56:05.439Z,153.80
2018-12-26T06:58:32.827Z,147.50
2018-12-26T07:01:00.281Z,140.67
2018-12-26T07:03:47.463Z,142.33
2018-12-26T07:06:15.015Z,144.93
2018-12-26T07:08:42.526Z,142.20
2018-12-26T07:11:10.119Z,146.23
2018-12-26T07:13:37.605Z,144.70
2018-12-26T07:16:17.816Z,148.23
2018-12-26T07:18:57.874Z,149.80
2018-12-26T07:21:37.943Z,147.60
2018-12-26T07:24:18.141Z,143.67
2018-12-26T07:26:47.070Z,144.80
2018-12-26T07:29:14.645Z,143.07
2018-12-26T07:31:41.997Z,144.67
2018-12-26T07:34:09.404Z,141.77
2018-12-26T07:36:49.924Z,145.53
2018-12-26T07:39:29.792Z,148.33
2018-12-26T07:41:57.234Z,148.17
2018-12-26T07:44:24.613Z,143.43
2018-12-26T07:47:04.867Z,148.03
2018-12-26T07:49:32.367Z,152.33
2018-12-26T07:52:19.341Z,144.53
2018-12-26T07:55:00.046Z,146.43
2018-12-26T07:57:41.478Z,149.20
2018-12-26T08:00:21.995Z,141.07
2018-12-26T08:03:02.055Z,157.50
2018-12-26T08:05:42.707Z,148.93
2018-12-26T08:08:29.879Z,148.47
2018-12-26T08:11:09.694Z,147.80
2018-12-26T08:13:50.418Z,151.63
2018-12-26T08:19:31.991Z,156.90
2018-12-26T08:22:12.238Z,149.87
2018-12-26T08:24:52.587Z,152.70
2018-12-26T08:27:32.959Z,153.10
2018-12-26T08:30:13.428Z,143.73
2018-12-26T08:32:53.580Z,161.70
2018-12-26T08:35:33.877Z,149.43
2018-12-26T08:38:14.339Z,143.87
2018-12-26T08:41:01.380Z,148.43
2018-12-26T08:43:41.660Z,149.83
2018-12-26T08:46:21.786Z,148.83
2018-12-26T08:49:02.182Z,151.93
2018-12-26T08:51:42.688Z,153.47
2018-12-26T08:54:22.802Z,149.47
2018-12-26T08:57:03.091Z,148.50
2018-12-26T08:59:43.140Z,144.43
2018-12-26T09:02:24.288Z,161.67
2018-12-26T09:05:05.325Z,145.73
2018-12-26T09:07:45.287Z,160.70
2018-12-26T09:10:25.707Z,145.97
2018-12-26T09:13:06.049Z,154.27
2018-12-26T09:15:46.209Z,147.20
2018-12-26T09:18:27.864Z,152.00
2018-12-26T09:21:08.356Z,156.30
2018-12-26T09:23:49.659Z,158.77
2018-12-26T09:26:30.316Z,163.07
2018-12-26T09:29:10.729Z,145.77
2018-12-26T09:31:52.265Z,154.80
2018-12-26T09:34:32.429Z,155.63
2018-12-26T09:37:12.848Z,159.13
2018-12-26T09:39:53.074Z,151.40
2018-12-26T09:42:40.286Z,163.87
2018-12-26T09:45:21.201Z,155.67
2018-12-26T09:48:01.135Z,165.53
2018-12-26T09:50:41.471Z,160.10
2018-12-26T09:53:21.727Z,158.23
2018-12-26T09:56:02.478Z,157.07
2018-12-26T09:58:42.450Z,157.07
2018-12-26T10:01:22.662Z,146.20
2018-12-26T10:04:02.928Z,154.63
2018-12-26T10:06:43.516Z,148.37
2018-12-26T10:09:23.979Z,151.40
2018-12-26T10:12:04.479Z,156.50
2018-12-26T10:14:51.793Z,150.00
2018-12-26T10:17:32.299Z,162.07
2018-12-26T10:20:12.652Z,150.17
2018-12-26T10:22:52.629Z,165.40
2018-12-26T10:25:33.210Z,154.50
2018-12-26T10:28:13.810Z,160.10
2018-12-26T10:30:53.860Z,152.87
2018-12-26T10:33:21.454Z,165.33
2018-12-26T10:36:08.455Z,151.17
2018-12-26T10:38:48.817Z,169.60
2018-12-26T10:41:29.178Z,154.30
2018-12-26T10:44:09.434Z,155.13
2018-12-26T10:47:16.456Z,159.50
2018-12-26T10:49:57.485Z,158.27
2018-12-26T10:52:39.617Z,164.73
2018-12-26T10:55:20.168Z,161.37
2018-12-26T10:58:01.477Z,176.77
2018-12-26T11:00:41.843Z,160.03
2018-12-26T11:03:23.418Z,161.37
2018-12-26T11:06:03.677Z,165.30
2018-12-26T11:08:44.937Z,158.37
2018-12-26T11:11:25.590Z,169.50
2018-12-26T11:14:08.429Z,160.27
2018-12-26T11:16:48.290Z,161.30
2018-12-26T11:19:28.819Z,165.40
2018-12-26T11:22:09.312Z,162.10
2018-12-26T11:24:50.279Z,166.00
2018-12-26T11:27:30.384Z,167.77
2018-12-26T11:30:10.785Z,162.23
2018-12-26T11:32:51.397Z,168.97
2018-12-26T11:35:31.859Z,150.20
2018-12-26T11:38:12.859Z,176.73
2018-12-26T11:40:53.426Z,154.23
2018-12-26T11:43:33.480Z,161.80
2018-12-26T11:46:14.047Z,162.83
2018-12-26T11:48:54.356Z,159.67
2018-12-26T11:51:34.564Z,158.60
2018-12-26T12:01:01.210Z,158.43
2018-12-26T12:03:48.356Z,161.90
2018-12-26T12:06:29.360Z,167.33
2018-12-26T12:08:57.909Z,164.03
2018-12-26T12:11:40.935Z,170.97
2018-12-26T12:14:21.742Z,159.13
2018-12-26T12:17:02.231Z,167.63
2018-12-26T12:19:46.471Z,166.87
2018-12-26T12:22:28.637Z,167.03
2018-12-26T12:25:15.919Z,165.27
2018-12-26T12:27:56.518Z,166.10
2018-12-26T12:30:37.295Z,164.40
2018-12-26T12:33:20.528Z,167.53
2018-12-26T12:36:01.705Z,158.67
2018-12-26T12:38:42.205Z,164.57
2018-12-26T12:41:23.759Z,150.53
2018-12-26T12:44:04.616Z,160.80
2018-12-26T12:46:45.471Z,158.00
2018-12-26T12:49:25.769Z,166.03
2018-12-26T12:52:06.155Z,158.00
2018-12-26T12:54:46.234Z,160.93
2018-12-26T12:57:33.624Z,178.20
2018-12-26T13:00:13.755Z,163.97
2018-12-26T13:03:00.352Z,164.47
2018-12-26T13:05:35.896Z,174.47
2018-12-26T13:08:16.357Z,169.53
2018-12-26T13:10:56.891Z,162.90
2018-12-26T13:13:37.139Z,160.63
2018-12-26T13:16:17.197Z,159.40
2018-12-26T13:18:57.378Z,165.43
2018-12-26T13:21:38.048Z,169.33
2018-12-26T13:24:19.184Z,166.50
2018-12-26T13:27:00.529Z,162.70
2018-12-26T13:29:42.181Z,166.17
2018-12-26T13:32:22.250Z,181.03
2018-12-26T13:35:02.755Z,158.20
2018-12-26T13:37:43.008Z,179.10
2018-12-26T13:40:23.365Z,167.17
2018-12-26T13:43:03.753Z,176.37
2018-12-26T13:45:43.606Z,187.60
2018-12-26T13:48:23.884Z,179.27
2018-12-26T13:51:04.334Z,169.27
2018-12-26T13:53:44.617Z,167.50
2018-12-26T13:56:31.746Z,175.63
2018-12-26T13:59:12.382Z,162.60
2018-12-26T14:01:59.666Z,163.63
2018-12-26T14:04:40.542Z,165.40
2018-12-26T14:07:20.788Z,179.93
2018-12-26T14:10:01.028Z,169.07
2018-12-26T14:12:41.098Z,182.37
2018-12-26T14:15:22.385Z,173.30
2018-12-26T14:18:02.490Z,181.10
2018-12-26T14:20:42.799Z,167.80
2018-12-26T14:23:26.917Z,173.40
2018-12-26T14:26:07.477Z,172.20
2018-12-26T14:28:48.071Z,161.80
2018-12-26T14:31:28.359Z,167.90
2018-12-26T14:34:16.024Z,162.30
2018-12-26T14:36:57.912Z,171.90
2018-12-26T14:39:38.361Z,179.50
2018-12-26T14:42:18.363Z,191.20
2018-12-26T14:44:58.721Z,173.87
2018-12-26T14:47:39.096Z,178.33
2018-12-26T14:50:18.910Z,171.10
2018-12-26T14:52:59.060Z,176.63
2018-12-26T14:55:39.322Z,169.13
2018-12-26T14:58:20.604Z,169.67
2018-12-26T15:01:04.566Z,163.03
2018-12-26T15:04:12.984Z,175.67
2018-12-26T15:06:53.384Z,162.77
2018-12-26T15:09:33.846Z,176.17
2018-12-26T15:12:14.147Z,176.27
2018-12-26T15:14:54.932Z,180.07
2018-12-26T15:17:35.170Z,187.03
2018-12-26T15:20:15.301Z,182.20
2018-12-26T15:22:55.812Z,187.80
2018-12-26T15:25:36.317Z,159.10
2018-12-26T15:28:16.481Z,177.57
2018-12-26T15:30:56.788Z,166.63
2018-12-26T15:33:36.921Z,180.97
2018-12-26T15:36:16.886Z,169.03
2018-12-26T15:38:56.968Z,181.70
2018-12-26T15:41:37.343Z,173.53
2018-12-26T15:44:17.248Z,171.27
2018-12-26T15:46:58.027Z,169.90
2018-12-26T15:49:37.975Z,173.27
2018-12-26T15:52:18.477Z,186.07
2018-12-26T15:54:58.470Z,171.13
2018-12-26T15:57:38.948Z,184.33
2018-12-26T16:00:19.587Z,165.07
2018-12-26T16:02:59.500Z,192.63
2018-12-26T16:05:39.915Z,172.30
2018-12-26T16:08:26.909Z,173.43
2018-12-26T16:11:07.202Z,180.37
2018-12-26T16:13:47.502Z,179.43
2018-12-26T16:16:27.952Z,172.73
2018-12-26T16:19:08.321Z,171.23
2018-12-26T16:21:48.712Z,167.70
2018-12-26T16:24:35.751Z,164.07
2018-12-26T16:27:16.182Z,166.87
2018-12-26T16:29:43.992Z,173.13
2018-12-26T16:32:24.454Z,183.33
2018-12-26T16:35:05.676Z,172.03
2018-12-26T16:37:46.305Z,188.33
2018-12-26T16:40:26.601Z,168.97
2018-12-26T16:43:06.645Z,181.83
2018-12-26T16:45:46.968Z,182.27
2018-12-26T16:48:27.329Z,179.80
2018-12-26T16:51:14.617Z,164.97
2018-12-26T16:53:55.172Z,173.73
2018-12-26T16:56:35.369Z,177.20
2018-12-26T16:59:15.479Z,168.03
2018-12-26T17:01:55.600Z,172.17
2018-12-26T17:04:36.286Z,176.03
2018-12-26T17:07:04.009Z,180.03
2018-12-26T17:09:51.047Z,169.00
2018-12-26T17:12:30.929Z,173.60
2018-12-26T17:15:11.556Z,178.57
2018-12-26T17:17:51.365Z,188.80
2018-12-26T17:20:31.672Z,165.73
2018-12-26T17:23:11.821Z,179.07
2018-12-26T17:25:52.309Z,176.07
2018-12-26T17:28:32.578Z,180.53
2018-12-26T17:31:12.828Z,181.57
2018-12-26T17:33:53.365Z,173.00
2018-12-26T17:36:33.416Z,182.47
2018-12-26T17:39:13.773Z,181.53
2018-12-26T17:41:41.403Z,178.27
2018-12-26T17:44:28.412Z,173.90
2018-12-26T17:47:08.733Z,164.57
2018-12-26T17:49:48.793Z,173.83
2018-12-26T17:52:29.388Z,176.87
2018-12-26T17:55:32.067Z,159.70
2018-12-26T17:58:11.847Z,179.27
2018-12-26T18:01:01.558Z,179.73
2018-12-26T18:03:42.320Z,178.20
2018-12-26T18:06:22.637Z,171.70
2018-12-26T18:09:03.570Z,173.73
2018-12-26T18:11:45.124Z,164.10
2018-12-26T18:14:25.498Z,173.57
2018-12-26T18:17:09.495Z,165.37
2018-12-26T18:19:50.686Z,184.40
2018-12-26T18:22:30.965Z,187.83
2018-12-26T18:25:11.204Z,164.37
2018-12-26T18:27:38.808Z,181.83
2018-12-26T18:30:21.210Z,166.27
2018-12-26T18:33:01.527Z,179.47
2018-12-26T18:35:42.088Z,165.40
2018-12-26T18:38:22.118Z,171.97
2018-12-26T18:41:02.434Z,177.30
2018-12-26T18:43:42.565Z,167.97
2018-12-26T18:55:42.409Z,171.23
2018-12-26T18:58:23.901Z,168.63
2018-12-26T19:01:05.309Z,169.63
2018-12-26T19:03:47.346Z,164.07
2018-12-26T19:06:27.787Z,160.63
2018-12-26T19:09:10.309Z,164.93
2018-12-26T19:11:56.360Z,163.50
2018-12-26T19:14:40.308Z,167.47
2018-12-26T19:17:27.454Z,177.57
2018-12-26T19:20:09.067Z,183.83
2018-12-26T19:22:49.760Z,178.37
2018-12-26T19:25:29.931Z,165.17
2018-12-26T19:28:10.116Z,176.00
2018-12-26T19:30:50.243Z,165.10
2018-12-26T19:33:30.725Z,175.47
2018-12-26T19:35:58.225Z,173.50
2018-12-26T19:38:38.927Z,163.53
2018-12-26T19:41:19.276Z,174.00
2018-12-26T19:43:59.649Z,166.80
2018-12-26T19:46:27.074Z,176.90
2018-12-26T19:49:14.385Z,166.47
2018-12-26T19:51:55.027Z,168.13
2018-12-26T19:54:35.943Z,173.47
2018-12-26T19:57:04.020Z,178.57
2018-12-26T19:59:44.556Z,170.33
2018-12-26T20:02:24.697Z,187.93
2018-12-26T20:05:04.983Z,163.90
2018-12-26T20:07:45.529Z,194.03
2018-12-26T20:10:25.490Z,173.20
2018-12-26T20:13:05.909Z,180.73
2018-12-26T20:15:52.960Z,182.50
2018-12-26T20:18:33.494Z,189.23
2018-12-26T20:21:13.512Z,183.50
2018-12-26T20:23:54.017Z,168.73
2018-12-26T20:26:35.265Z,179.77
2018-12-26T20:29:15.774Z,176.97
2018-12-26T20:31:57.430Z,185.87
2018-12-26T20:34:37.866Z,189.03
2018-12-26T20:37:18.886Z,185.83
2018-12-26T20:39:59.601Z,179.20
2018-12-26T20:42:40.355Z,184.47
2018-12-26T20:45:20.509Z,191.20
2018-12-26T20:48:07.614Z,190.03
2018-12-26T20:50:48.492Z,182.17
2018-12-26T20:53:29.053Z,189.03
2018-12-26T20:56:09.437Z,189.43
2018-12-26T20:58:49.633Z,188.17
2018-12-26T21:13:54.135Z,173.47
2018-12-26T21:16:34.194Z,166.37
2018-12-26T21:19:21.178Z,172.00
2018-12-26T21:22:01.833Z,170.40
2018-12-26T21:27:29.175Z,183.73
2018-12-26T21:30:11.062Z,180.80
2018-12-26T21:32:51.409Z,182.97
2018-12-26T21:35:31.639Z,197.53
2018-12-26T21:38:11.939Z,177.33
2018-12-26T21:40:52.547Z,172.60
2018-12-26T21:43:32.741Z,174.50
2018-12-26T21:46:13.034Z,163.13
2018-12-26T21:48:52.981Z,173.50
2018-12-26T21:51:33.338Z,174.27
2018-12-26T21:54:13.480Z,166.43
2018-12-26T21:56:53.551Z,162.60
2018-12-26T21:59:34.443Z,155.67
2018-12-26T22:02:22.258Z,170.97
2018-12-26T22:04:56.635Z,168.60
2018-12-26T22:07:37.235Z,182.40
2018-12-26T22:10:17.407Z,157.23
2018-12-26T22:12:57.539Z,183.40
2018-12-26T22:15:37.666Z,168.73
2018-12-26T22:18:17.770Z,161.77
2018-12-26T22:20:58.205Z,173.43
2018-12-26T22:23:38.290Z,174.23
2018-12-26T22:26:18.546Z,172.63
2018-12-26T22:28:58.805Z,166.63
2018-12-26T22:31:38.722Z,163.00
2018-12-26T22:34:19.333Z,162.90
2018-12-26T22:36:59.890Z,168.37
2018-12-26T22:39:27.377Z,168.93
2018-12-26T22:42:16.368Z,170.07
2018-12-26T22:44:43.780Z,161.33
2018-12-26T22:47:11.306Z,187.07
2018-12-26T22:49:51.110Z,166.77
2018-12-26T22:52:31.622Z,183.93
2018-12-26T22:55:11.848Z,165.37
2018-12-26T22:57:52.463Z,174.53
2018-12-26T23:03:33.146Z,165.80
2018-12-26T23:06:13.556Z,158.87
2018-12-26T23:08:53.776Z,166.07
2018-12-26T23:11:34.315Z,162.90
2018-12-26T23:14:15.215Z,176.07
2018-12-26T23:16:55.207Z,176.80
2018-12-26T23:19:35.463Z,167.43
2018-12-26T23:22:35.242Z,173.63
2018-12-26T23:25:22.258Z,164.57
2018-12-26T23:28:02.599Z,171.33
2018-12-26T23:30:30.026Z,160.27
2018-12-26T23:33:17.187Z,168.77
2018-12-26T23:35:57.302Z,166.00
2018-12-26T23:38:37.324Z,169.67
2018-12-26T23:41:17.446Z,169.67
2018-12-26T23:43:57.675Z,173.20
2018-12-26T23:46:25.115Z,152.10
2018-12-26T23:49:05.143Z,162.57
2018-12-26T23:51:45.634Z,151.87
2018-12-26T23:54:32.655Z,176.17
2018-12-26T23:57:12.673Z,170.57
2018-12-26T23:59:52.618Z,162.67
